Time;durP1;ratioP1;P1;durP2;ratioP2;P2;SDS_P1;SDS_P2;PMS_P1;PMS_P2;Temp;Humidity;BMP_temperature;BMP_pressure;BME280_temperature;BME280_humidity;BME280_pressure;Samples;Min_cycle;Max_cycle;Signal;HPM_P1;HPM_P2
2022/02/20 00:01:52;;;;;;;;;;;8.20;99.90;;;6.42;100.00;99650.97;5049413;28;19933;-82
2022/02/20 00:04:20;;;;;;;;;;;8.20;99.90;;;6.45;100.00;99656.00;5034233;28;19933;-82
2022/02/20 00:06:47;;;;;;;;;;;8.20;99.90;;;6.47;100.00;99664.75;5049230;28;20444;-82
2022/02/20 00:09:15;;;;;;;;;;;8.20;99.90;;;6.46;100.00;99663.09;5045118;28;19936;-82
2022/02/20 00:11:43;;;;;;;;;;;8.20;99.90;;;6.42;100.00;99667.19;5048872;28;19937;-82
2022/02/20 00:14:10;;;;;;;;;;;8.20;99.90;;;6.48;100.00;99677.28;5049810;28;20023;-82
2022/02/20 00:16:37;;;;;;;;;;;8.20;99.90;;;6.45;100.00;99678.47;5049541;28;19929;-82
2022/02/20 00:19:04;;;;;;;;;;;8.20;99.90;;;6.45;100.00;99693.84;5042194;28;20019;-82
2022/02/20 00:21:31;;;;;;;;;;;8.20;99.90;;;6.41;100.00;99697.91;5040656;28;19929;-82
2022/02/20 00:23:58;;;;;;;;;;;8.20;99.90;;;6.45;100.00;99724.44;5034461;28;19937;-82
2022/02/20 00:26:27;;;;;;;;;;;8.20;99.90;;;6.35;100.00;99728.34;5034184;28;19935;-82
2022/02/20 00:28:54;;;;;;;;;;;8.10;99.90;;;6.22;100.00;99737.84;5049586;28;20031;-82
2022/02/20 00:31:21;;;;;;;;;;;8.10;99.90;;;6.17;100.00;99745.66;5039036;28;20304;-82
2022/02/20 00:33:48;;;;;;;;;;;8.10;99.90;;;6.16;100.00;99764.75;5043032;28;20451;-82
2022/02/20 00:36:15;;;;;;;;;;;8.10;99.90;;;6.17;100.00;99769.13;5045111;28;19928;-82
2022/02/20 00:38:43;;;;;;;;;;;8.00;99.90;;;6.19;100.00;99762.53;5044109;28;19933;-82
2022/02/20 00:41:10;;;;;;;;;;;8.00;99.90;;;6.15;100.00;99790.06;5032488;28;20347;-82
2022/02/20 00:43:38;;;;;;;;;;;8.00;99.90;;;6.15;100.00;99785.53;5044229;28;20443;-82
2022/02/20 00:46:06;;;;;;;;;;;7.90;99.90;;;6.11;100.00;99792.31;5045226;28;19963;-82
2022/02/20 00:48:33;;;;;;;;;;;7.90;99.90;;;6.06;100.00;99787.41;5047184;28;19935;-82
2022/02/20 00:51:01;;;;;;;;;;;7.90;99.90;;;5.93;100.00;99815.94;5049043;28;19929;-82
2022/02/20 00:53:29;;;;;;;;;;;7.90;99.90;;;5.90;100.00;99819.81;5048854;28;19929;-82
2022/02/20 00:55:56;;;;;;;;;;;7.90;99.90;;;5.88;100.00;99828.09;5042248;28;19925;-82
2022/02/20 00:58:23;;;;;;;;;;;7.90;99.90;;;5.83;100.00;99819.66;5048009;28;19936;-82
2022/02/20 01:00:52;;;;;;;;;;;7.90;99.90;;;5.90;100.00;99843.28;5044287;28;19939;-82
2022/02/20 01:03:19;;;;;;;;;;;7.80;99.90;;;5.85;100.00;99839.22;5053240;28;19937;-82
2022/02/20 01:05:47;;;;;;;;;;;7.80;99.90;;;5.84;100.00;99839.41;5044993;28;19925;-82
2022/02/20 01:08:15;;;;;;;;;;;7.80;99.90;;;5.85;100.00;99865.41;5048934;28;19928;-82
2022/02/20 01:10:46;;;;;;;;;;;7.80;99.90;;;5.81;100.00;99864.06;5037006;28;20465;-82
2022/02/20 01:13:13;;;;;;;;;;;7.80;99.90;;;5.80;100.00;99873.16;5052625;28;20259;-82
2022/02/20 01:15:40;;;;;;;;;;;7.70;99.90;;;5.75;100.00;99883.63;5024357;28;19933;-82
2022/02/20 01:18:09;;;;;;;;;;;7.70;99.90;;;5.73;100.00;99882.94;5035060;28;19939;-82
2022/02/20 01:20:36;;;;;;;;;;;7.70;99.90;;;5.74;100.00;99882.78;5051903;28;20392;-82
2022/02/20 01:23:05;;;;;;;;;;;7.70;99.90;;;5.77;100.00;99889.69;5051301;28;20025;-82
2022/02/20 01:25:32;;;;;;;;;;;7.60;99.90;;;5.68;100.00;99897.78;5048509;28;19932;-82
2022/02/20 01:27:59;;;;;;;;;;;7.70;99.90;;;5.63;100.00;99894.75;5046075;28;19971;-82
2022/02/20 01:30:26;;;;;;;;;;;7.70;99.90;;;5.66;100.00;99909.78;5051466;28;19935;-82
2022/02/20 01:32:53;;;;;;;;;;;7.60;99.90;;;5.56;100.00;99914.47;5052479;28;19937;-82
2022/02/20 01:35:22;;;;;;;;;;;7.60;99.90;;;5.56;100.00;99914.47;5049213;28;19990;-82
2022/02/20 01:37:50;;;;;;;;;;;7.50;99.90;;;5.55;100.00;99920.91;5044552;28;19929;-82
2022/02/20 01:40:18;;;;;;;;;;;7.60;99.90;;;5.59;100.00;99924.94;5050702;28;19929;-82
2022/02/20 01:42:45;;;;;;;;;;;7.70;99.90;;;5.56;100.00;99930.66;5052364;28;19928;-82
2022/02/20 01:45:13;;;;;;;;;;;7.50;99.90;;;5.52;100.00;99926.63;5047748;28;19928;-82
2022/02/20 01:47:40;;;;;;;;;;;7.50;99.90;;;5.44;100.00;99941.78;5049791;28;19935;-82
2022/02/20 01:50:09;;;;;;;;;;;7.50;99.90;;;5.42;100.00;99945.66;5052172;28;19970;-82
2022/02/20 01:52:38;;;;;;;;;;;7.50;99.90;;;5.32;100.00;99945.81;5050559;28;20470;-82
2022/02/20 01:55:08;;;;;;;;;;;7.50;99.90;;;5.38;100.00;99964.03;5040080;28;19926;-82
2022/02/20 01:57:47;;;;;;;;;;;7.50;99.90;;;5.39;100.00;99967.59;5047220;28;19929;-82
2022/02/20 02:00:34;;;;;;;;;;;7.50;99.90;;;5.32;100.00;99969.25;5037352;28;20028;-82
2022/02/20 02:03:20;;;;;;;;;;;7.50;99.90;;;5.28;100.00;99960.66;5048010;28;20033;-82
2022/02/20 02:06:01;;;;;;;;;;;7.50;99.90;;;5.28;100.00;99974.13;5042611;28;19933;-82
2022/02/20 02:08:30;;;;;;;;;;;7.40;99.90;;;5.27;100.00;99983.22;5050232;28;19990;-81
2022/02/20 02:11:23;;;;;;;;;;;7.40;99.90;;;5.28;100.00;100003.81;5029300;28;19925;-82
2022/02/20 02:14:20;;;;;;;;;;;7.40;99.90;;;5.31;100.00;100000.78;4943936;28;19930;-82
2022/02/20 02:17:03;;;;;;;;;;;7.40;99.90;;;5.31;100.00;100016.97;5025545;28;19932;-82
2022/02/20 02:19:56;;;;;;;;;;;7.40;99.90;;;5.34;100.00;100013.13;5047140;28;19929;-82
2022/02/20 02:22:41;;;;;;;;;;;7.30;99.90;;;5.37;100.00;100024.44;5042742;28;19936;-82
2022/02/20 02:25:27;;;;;;;;;;;7.30;99.90;;;5.38;100.00;100023.41;5047214;28;20018;-81
2022/02/20 02:28:07;;;;;;;;;;;7.40;99.90;;;5.37;100.00;100035.22;5046137;28;19935;-82
2022/02/20 02:30:36;;;;;;;;;;;7.40;99.90;;;5.41;100.00;100039.28;5048013;28;20292;-82
2022/02/20 02:33:03;;;;;;;;;;;7.30;99.90;;;5.36;100.00;100047.00;5050163;28;20396;-82
2022/02/20 02:35:30;;;;;;;;;;;7.30;99.90;;;5.40;100.00;100040.28;5050594;28;19968;-82
2022/02/20 02:37:59;;;;;;;;;;;7.30;99.90;;;5.37;100.00;100048.72;5044707;28;19925;-82
2022/02/20 02:40:27;;;;;;;;;;;7.30;99.90;;;5.33;100.00;100050.06;5051062;28;19925;-82
2022/02/20 02:42:54;;;;;;;;;;;7.40;99.90;;;5.29;100.00;100054.06;5044048;28;19929;-82
2022/02/20 02:45:25;;;;;;;;;;;7.40;99.90;;;5.23;100.00;100060.94;5046152;28;20361;-82
2022/02/20 02:47:53;;;;;;;;;;;7.40;99.90;;;5.23;100.00;100077.13;5036785;28;20423;-82
2022/02/20 02:50:20;;;;;;;;;;;7.40;99.90;;;5.30;100.00;100074.66;5049848;28;19936;-82
2022/02/20 02:52:49;;;;;;;;;;;7.40;99.90;;;5.32;100.00;100083.41;5039299;28;20373;-82
2022/02/20 02:55:19;;;;;;;;;;;7.40;99.90;;;5.30;100.00;100077.34;5037040;28;19924;-82
2022/02/20 02:57:46;;;;;;;;;;;7.40;99.90;;;5.31;100.00;100086.28;5037063;28;19925;-82
2022/02/20 03:00:14;;;;;;;;;;;7.40;99.90;;;5.37;100.00;100097.28;5045045;28;19929;-82
2022/02/20 03:02:43;;;;;;;;;;;7.30;99.90;;;5.34;100.00;100094.06;5038311;28;19983;-82
2022/02/20 03:05:10;;;;;;;;;;;7.40;99.90;;;5.32;100.00;100102.31;5048619;28;20355;-82
2022/02/20 03:07:39;;;;;;;;;;;7.40;99.90;;;5.28;100.00;100106.34;5050494;28;19982;-82
2022/02/20 03:10:07;;;;;;;;;;;7.40;99.90;;;5.25;100.00;100101.25;5039496;28;19928;-82
2022/02/20 03:12:38;;;;;;;;;;;7.40;99.90;;;5.25;100.00;100099.41;5048986;28;20019;-82
2022/02/20 03:15:07;;;;;;;;;;;7.40;99.90;;;5.30;100.00;100115.13;5049307;28;20023;-82
2022/02/20 03:17:34;;;;;;;;;;;7.40;99.90;;;5.30;100.00;100115.13;5049324;28;20043;-82
2022/02/20 03:20:02;;;;;;;;;;;7.40;99.90;;;5.32;100.00;100110.41;5044798;28;19935;-82
2022/02/20 03:22:30;;;;;;;;;;;7.40;99.90;;;5.28;100.00;100114.44;5044691;28;19999;-82
2022/02/20 03:24:57;;;;;;;;;;;7.40;99.90;;;5.23;100.00;100108.66;5043283;28;20012;-82
2022/02/20 03:27:24;;;;;;;;;;;7.40;99.90;;;5.20;100.00;100109.00;5059796;28;20002;-82
2022/02/20 03:29:54;;;;;;;;;;;7.40;99.90;;;5.23;100.00;100105.97;5043418;28;19924;-82
2022/02/20 03:32:21;;;;;;;;;;;7.30;99.90;;;5.21;100.00;100116.06;5048289;28;21836;-82
2022/02/20 03:34:49;;;;;;;;;;;7.30;99.90;;;5.29;100.00;100118.81;5040624;28;20578;-82
2022/02/20 03:37:16;;;;;;;;;;;7.30;99.90;;;5.21;100.00;100122.31;5049050;28;19952;-82
2022/02/20 03:39:43;;;;;;;;;;;7.30;99.90;;;5.23;100.00;100124.84;5038155;28;19994;-82
2022/02/20 03:42:11;;;;;;;;;;;7.30;99.90;;;5.22;100.00;100131.25;5048404;28;20304;-82
2022/02/20 03:45:00;;;;;;;;;;;7.30;99.90;;;5.28;100.00;100133.31;5034029;28;19931;-81
2022/02/20 03:47:28;;;;;;;;;;;7.30;99.90;;;5.26;100.00;100135.34;5048590;28;19925;-82
2022/02/20 03:49:58;;;;;;;;;;;7.30;99.90;;;5.34;100.00;100135.38;5030552;28;20010;-82
2022/02/20 03:52:33;;;;;;;;;;;7.20;99.90;;;5.28;100.00;100134.16;5061651;28;20020;-82
2022/02/20 03:55:02;;;;;;;;;;;7.30;99.90;;;5.31;100.00;100127.59;5028818;28;19924;-82
2022/02/20 03:57:34;;;;;;;;;;;7.30;99.90;;;5.31;100.00;100135.69;5048358;28;20274;-82
2022/02/20 04:00:20;;;;;;;;;;;7.30;99.90;;;5.32;100.00;100129.28;5049479;28;20384;-82
2022/02/20 04:03:10;;;;;;;;;;;7.30;99.90;;;5.31;100.00;100116.78;5025366;28;19928;-82
2022/02/20 04:05:40;;;;;;;;;;;7.30;99.90;;;5.26;100.00;100132.63;5040415;28;20372;-82
2022/02/20 04:08:11;;;;;;;;;;;7.30;99.90;;;5.29;100.00;100135.00;5048655;28;19928;-82
2022/02/20 04:10:39;;;;;;;;;;;7.30;99.90;;;5.24;100.00;100142.75;5047796;28;20024;-82
2022/02/20 04:13:10;;;;;;;;;;;7.30;99.90;;;5.26;100.00;100149.66;5048406;28;19935;-82
2022/02/20 04:15:53;;;;;;;;;;;7.20;99.90;;;5.28;100.00;100149.50;5048433;28;19951;-82
2022/02/20 04:18:25;;;;;;;;;;;7.20;99.90;;;5.25;100.00;100144.41;5048725;28;20453;-82
2022/02/20 04:21:17;;;;;;;;;;;7.30;99.90;;;5.20;100.00;100149.47;5045379;28;19935;-82
2022/02/20 04:23:45;;;;;;;;;;;7.30;99.90;;;5.17;100.00;100160.56;5054494;23;20019;-83
2022/02/20 04:26:15;;;;;;;;;;;7.30;99.90;;;5.15;100.00;100136.44;5045209;28;20367;-83
2022/02/20 04:28:45;;;;;;;;;;;7.20;99.90;;;5.19;100.00;100140.50;5040759;28;20427;-83
2022/02/20 04:31:14;;;;;;;;;;;7.20;99.90;;;5.20;100.00;100130.59;5048351;28;19967;-86
2022/02/20 04:33:42;;;;;;;;;;;7.30;99.90;;;5.16;100.00;100131.88;5043145;28;19939;-83
2022/02/20 04:36:10;;;;;;;;;;;7.20;99.90;;;5.05;100.00;100125.75;5049666;28;19964;-83
2022/02/20 04:38:37;;;;;;;;;;;7.20;99.90;;;5.09;100.00;100115.50;5039850;28;19932;-83
2022/02/20 04:41:08;;;;;;;;;;;7.20;99.90;;;5.11;100.00;100121.56;5051851;28;19936;-84
2022/02/20 04:43:37;;;;;;;;;;;7.10;99.90;;;5.10;100.00;100119.88;5047656;28;20018;-84
2022/02/20 04:46:09;;;;;;;;;;;7.10;99.90;;;5.08;100.00;100116.50;5052311;28;20024;-86
2022/02/20 04:48:39;;;;;;;;;;;7.10;99.90;;;5.02;100.00;100115.28;5048173;28;19929;-84
2022/02/20 04:51:14;;;;;;;;;;;7.10;99.90;;;4.92;100.00;100114.53;5047900;28;19925;-84
2022/02/20 04:53:41;;;;;;;;;;;7.00;99.90;;;4.88;100.00;100102.38;5047092;28;19936;-84
2022/02/20 04:56:08;;;;;;;;;;;7.00;99.90;;;4.81;100.00;100106.72;5066076;28;19929;-83
2022/02/20 04:58:38;;;;;;;;;;;7.20;99.90;;;4.80;100.00;100096.94;5067887;28;19924;-84
2022/02/20 05:01:13;;;;;;;;;;;6.90;99.90;;;4.83;100.00;100096.63;5058934;28;19972;-85
2022/02/20 05:04:13;;;;;;;;;;;6.90;99.90;;;4.84;100.00;100093.75;5040843;28;19939;-85
2022/02/20 05:06:47;;;;;;;;;;;6.90;99.90;;;4.89;100.00;100096.84;5037528;28;19928;-84
2022/02/20 05:09:29;;;;;;;;;;;6.90;99.90;;;4.89;100.00;100095.97;5062666;28;19924;-85
2022/02/20 05:12:02;;;;;;;;;;;6.90;99.90;;;4.91;100.00;100088.56;5050120;28;20448;-84
2022/02/20 05:14:32;;;;;;;;;;;6.90;99.90;;;4.93;100.00;100081.19;5052891;28;19958;-85
2022/02/20 05:17:12;;;;;;;;;;;6.90;99.90;;;4.95;100.00;100084.56;5030770;28;19955;-84
2022/02/20 05:20:11;;;;;;;;;;;6.90;99.90;;;4.99;100.00;100083.25;5039474;28;19937;-85
2022/02/20 05:22:38;;;;;;;;;;;7.00;99.90;;;4.97;100.00;100079.88;5047358;28;20042;-83
2022/02/20 05:25:13;;;;;;;;;;;6.90;99.90;;;5.01;100.00;100072.31;5033442;28;20278;-85
2022/02/20 05:27:42;;;;;;;;;;;7.00;99.90;;;5.01;100.00;100072.31;5041160;28;19925;-85
2022/02/20 05:30:16;;;;;;;;;;;7.00;99.90;;;4.97;100.00;100071.78;5047549;28;19932;-84
2022/02/20 05:32:44;;;;;;;;;;;7.00;99.90;;;5.01;100.00;100062.34;5053813;28;19929;-85
2022/02/20 05:35:23;;;;;;;;;;;7.00;99.90;;;5.04;100.00;100051.22;5042852;28;19940;-85
2022/02/20 05:37:52;;;;;;;;;;;7.00;99.90;;;4.98;100.00;100045.66;5057642;28;19933;-85
2022/02/20 05:40:23;;;;;;;;;;;7.00;99.90;;;4.91;100.00;100040.03;5048456;28;20321;-85
2022/02/20 05:43:00;;;;;;;;;;;7.00;99.90;;;4.97;100.00;100036.72;5047829;28;19925;-85
2022/02/20 05:45:30;;;;;;;;;;;7.00;99.90;;;4.89;100.00;100026.75;5044367;28;19932;-86
2022/02/20 05:48:03;;;;;;;;;;;7.00;99.90;;;4.97;100.00;100025.06;5047672;28;19940;-86
2022/02/20 05:50:35;;;;;;;;;;;7.00;99.90;;;4.98;100.00;100008.72;5051412;28;20265;-85
2022/02/20 05:53:02;;;;;;;;;;;7.00;99.90;;;5.06;100.00;100006.09;5033753;28;19929;-85
2022/02/20 05:55:37;;;;;;;;;;;7.00;99.90;;;5.03;100.00;100010.97;5047922;28;19961;-85
2022/02/20 05:58:04;;;;;;;;;;;7.00;99.90;;;4.94;100.00;100007.38;5041956;28;19936;-85
2022/02/20 06:00:44;;;;;;;;;;;7.00;99.90;;;5.01;100.00;100000.34;5052948;28;19928;-84
2022/02/20 06:03:12;;;;;;;;;;;7.00;99.90;;;5.00;100.00;100003.19;5056708;28;19933;-85
2022/02/20 06:05:52;;;;;;;;;;;7.00;99.90;;;5.02;100.00;99991.22;5034664;28;19925;-85
2022/02/20 06:08:34;;;;;;;;;;;7.00;99.90;;;4.99;100.00;99985.31;5057874;28;19936;-85
2022/02/20 06:11:10;;;;;;;;;;;7.00;99.90;;;4.97;100.00;99968.44;5053219;28;20300;-85
2022/02/20 06:13:48;;;;;;;;;;;6.90;99.90;;;5.03;100.00;99959.72;5033968;28;20024;-85
2022/02/20 06:16:35;;;;;;;;;;;6.90;99.90;;;5.04;100.00;99948.75;5060331;28;20383;-85
2022/02/20 06:19:35;;;;;;;;;;;6.90;99.90;;;4.93;100.00;99940.97;5038369;28;19971;-85
2022/02/20 06:22:24;;;;;;;;;;;7.00;99.90;;;4.88;100.00;99932.53;5052760;28;19932;-85
2022/02/20 06:25:08;;;;;;;;;;;7.00;99.90;;;4.87;100.00;99930.81;5045802;28;19929;-85
2022/02/20 06:27:59;;;;;;;;;;;7.00;99.90;;;5.01;100.00;99921.28;5040815;28;19929;-85
2022/02/20 06:30:29;;;;;;;;;;;7.00;99.90;;;5.13;100.00;99919.97;5048723;28;20344;-86
2022/02/20 06:32:56;;;;;;;;;;;7.20;99.90;;;5.05;100.00;99923.47;5036565;28;20028;-85
2022/02/20 06:35:24;;;;;;;;;;;7.00;99.90;;;5.02;100.00;99912.19;5050177;28;19929;-83
2022/02/20 06:37:52;;;;;;;;;;;7.00;99.90;;;5.15;100.00;99909.03;5054667;28;19924;-88
2022/02/20 06:40:22;;;;;;;;;;;7.00;99.90;;;5.18;100.00;99898.75;5043082;28;19936;-86
2022/02/20 06:42:55;;;;;;;;;;;7.00;99.90;;;5.18;100.00;99890.66;5035147;28;20335;-91
2022/02/20 06:45:25;;;;;;;;;;;7.10;99.90;;;5.25;100.00;99880.91;5058204;28;19925;-83
2022/02/20 06:47:52;;;;;;;;;;;7.10;99.90;;;5.22;100.00;99880.38;5049155;28;19940;-83
2022/02/20 06:50:25;;;;;;;;;;;7.10;99.90;;;5.21;100.00;99878.69;5036696;28;19924;-83
2022/02/20 06:53:12;;;;;;;;;;;7.10;99.90;;;5.27;100.00;99856.44;5054843;28;19925;-83
2022/02/20 06:55:57;;;;;;;;;;;7.10;99.90;;;5.33;100.00;99847.69;5048608;28;19983;-81
2022/02/20 06:58:24;;;;;;;;;;;7.20;99.90;;;5.41;100.00;99838.75;5037884;28;20301;-83
2022/02/20 07:00:52;;;;;;;;;;;7.20;99.90;;;5.42;100.00;99829.63;5061845;28;19994;-83
2022/02/20 07:03:19;;;;;;;;;;;7.30;99.90;;;5.46;100.00;99817.50;5052379;28;19929;-84
2022/02/20 07:05:46;;;;;;;;;;;7.20;99.90;;;5.51;100.00;99825.09;5049236;28;19925;-84
2022/02/20 07:08:15;;;;;;;;;;;7.30;99.90;;;5.47;100.00;99813.78;5059057;28;19955;-84
2022/02/20 07:10:42;;;;;;;;;;;7.30;99.90;;;5.54;100.00;99816.63;5068530;28;19925;-84
2022/02/20 07:13:09;;;;;;;;;;;7.40;99.90;;;5.55;100.00;99811.09;5053666;28;19993;-84
2022/02/20 07:15:36;;;;;;;;;;;7.40;99.90;;;5.64;100.00;99801.97;5051783;28;20392;-84
2022/02/20 07:18:04;;;;;;;;;;;7.40;99.90;;;5.68;100.00;99794.38;5035896;28;19933;-84
2022/02/20 07:20:31;;;;;;;;;;;7.50;99.90;;;5.68;100.00;99783.56;5040878;28;19925;-85
2022/02/20 07:22:58;;;;;;;;;;;7.50;99.90;;;5.73;100.00;99800.13;5042694;28;19943;-85
2022/02/20 07:25:27;;;;;;;;;;;7.50;99.90;;;5.77;100.00;99801.44;5050372;28;19928;-84
2022/02/20 07:27:54;;;;;;;;;;;7.50;99.90;;;5.82;100.00;99796.38;5034313;28;19990;-84
2022/02/20 07:30:23;;;;;;;;;;;7.60;99.90;;;5.78;100.00;99800.44;5052518;28;19924;-84
2022/02/20 07:32:50;;;;;;;;;;;7.60;99.90;;;5.78;100.00;99795.03;5050511;28;19935;-83
2022/02/20 07:35:18;;;;;;;;;;;7.60;99.90;;;5.89;100.00;99801.94;5054328;28;19935;-84
2022/02/20 07:37:45;;;;;;;;;;;7.70;99.90;;;5.96;100.00;99804.81;5054913;28;20030;-84
2022/02/20 07:40:12;;;;;;;;;;;7.70;99.90;;;5.92;100.00;99795.34;5050488;28;20019;-84
2022/02/20 07:42:41;;;;;;;;;;;7.70;99.90;;;5.90;100.00;99803.59;5050170;28;19925;-82
2022/02/20 07:45:09;;;;;;;;;;;7.70;99.90;;;5.98;100.00;99803.63;5055798;28;20035;-84
2022/02/20 07:47:47;;;;;;;;;;;7.80;99.90;;;6.03;100.00;99803.09;5053070;28;20024;-84
2022/02/20 07:50:14;;;;;;;;;;;7.80;99.90;;;6.09;100.00;99794.31;5044757;28;20431;-84
2022/02/20 07:52:41;;;;;;;;;;;7.80;99.90;;;6.04;100.00;99799.41;5039723;28;19986;-84
2022/02/20 07:55:09;;;;;;;;;;;7.80;99.90;;;6.08;100.00;99795.34;5055810;28;19928;-84
2022/02/20 07:57:36;;;;;;;;;;;7.90;99.90;;;6.15;100.00;99796.34;5042540;28;19968;-83
2022/02/20 08:00:06;;;;;;;;;;;7.90;99.90;;;6.17;100.00;99778.09;5046056;28;19933;-80
2022/02/20 08:02:39;;;;;;;;;;;7.90;99.90;;;6.26;100.00;99771.66;5039260;28;19932;-80
2022/02/20 08:05:07;;;;;;;;;;;7.90;99.90;;;6.33;100.00;99757.44;5050150;28;19931;-81
2022/02/20 08:07:34;;;;;;;;;;;8.00;99.90;;;6.34;100.00;99767.19;5049852;28;19959;-82
2022/02/20 08:10:01;;;;;;;;;;;8.00;99.90;;;6.38;100.00;99780.19;5063034;28;19925;-82
2022/02/20 08:12:28;;;;;;;;;;;8.00;99.90;;;6.40;100.00;99774.63;5041373;28;19929;-82
2022/02/20 08:14:56;;;;;;;;;;;8.00;99.90;;;6.43;100.00;99774.25;5046284;28;20023;-81
2022/02/20 08:17:24;;;;;;;;;;;8.00;99.90;;;6.48;100.00;99758.34;5054646;28;19979;-81
2022/02/20 08:19:52;;;;;;;;;;;8.10;99.90;;;6.51;100.00;99752.63;5047050;28;20028;-82
2022/02/20 08:22:19;;;;;;;;;;;8.20;99.90;;;6.55;100.00;99763.88;5032682;28;20434;-81
2022/02/20 08:24:46;;;;;;;;;;;8.10;99.90;;;6.63;100.00;99753.03;5047268;28;19929;-82
2022/02/20 08:27:14;;;;;;;;;;;8.10;99.90;;;6.63;100.00;99751.19;5047165;28;19925;-84
2022/02/20 08:29:42;;;;;;;;;;;8.20;99.90;;;6.62;100.00;99738.66;5037024;28;19928;-83
2022/02/20 08:32:09;;;;;;;;;;;8.20;99.90;;;6.71;100.00;99744.03;5034277;28;19975;-84
2022/02/20 08:34:38;;;;;;;;;;;8.30;99.90;;;6.72;100.00;99743.00;5050826;28;19971;-82
2022/02/20 08:37:05;;;;;;;;;;;8.30;99.90;;;6.76;100.00;99733.50;5050779;28;19929;-82
2022/02/20 08:39:34;;;;;;;;;;;8.40;99.90;;;6.78;100.00;99740.44;5048112;28;19932;-82
2022/02/20 08:42:01;;;;;;;;;;;8.40;99.90;;;6.86;100.00;99736.84;5048734;28;20458;-82
2022/02/20 08:44:33;;;;;;;;;;;8.40;99.90;;;6.95;100.00;99732.19;5059759;28;19924;-81
2022/02/20 08:47:01;;;;;;;;;;;8.50;99.90;;;7.01;100.00;99735.03;5060580;28;19928;-82
2022/02/20 08:49:28;;;;;;;;;;;8.50;99.90;;;7.05;100.00;99730.94;5050008;28;20305;-84
2022/02/20 08:51:57;;;;;;;;;;;8.60;99.90;;;7.11;100.00;99728.53;5050904;28;19933;-84
2022/02/20 08:54:24;;;;;;;;;;;8.60;99.90;;;7.16;100.00;99736.94;5041358;28;19933;-84
2022/02/20 08:56:51;;;;;;;;;;;8.70;99.90;;;7.20;100.00;99720.16;5040332;28;19998;-83
2022/02/20 08:59:18;;;;;;;;;;;8.70;99.90;;;7.22;100.00;99717.28;5050246;28;20101;-83
2022/02/20 09:01:45;;;;;;;;;;;8.80;99.90;;;7.28;100.00;99724.66;5048574;28;19940;-87
2022/02/20 09:04:13;;;;;;;;;;;8.80;99.90;;;7.32;100.00;99730.56;5057789;28;19929;-85
2022/02/20 09:06:41;;;;;;;;;;;8.80;99.90;;;7.38;100.00;99727.94;5029144;28;20456;-84
2022/02/20 09:09:09;;;;;;;;;;;8.80;99.90;;;7.43;100.00;99703.88;5052046;28;19924;-82
2022/02/20 09:11:38;;;;;;;;;;;8.90;99.90;;;7.47;100.00;99726.03;5068769;28;20451;-82
2022/02/20 09:14:08;;;;;;;;;;;8.90;99.90;;;7.49;100.00;99723.97;5063146;28;19925;-82
2022/02/20 09:16:35;;;;;;;;;;;8.90;99.90;;;7.51;100.00;99715.66;5069211;28;19978;-82
2022/02/20 09:19:03;;;;;;;;;;;9.00;99.90;;;7.60;100.00;99719.97;5051997;28;19932;-83
2022/02/20 09:21:31;;;;;;;;;;;9.30;99.90;;;7.64;100.00;99715.88;5050598;28;20031;-83
2022/02/20 09:23:58;;;;;;;;;;;9.10;99.90;;;7.71;100.00;99716.81;5042406;28;19932;-84
2022/02/20 09:26:26;;;;;;;;;;;9.10;99.90;;;7.72;100.00;99704.94;5054008;28;19979;-82
2022/02/20 09:28:56;;;;;;;;;;;9.10;99.90;;;7.75;100.00;99712.69;5031438;28;20396;-83
2022/02/20 09:31:23;;;;;;;;;;;9.20;99.90;;;7.74;100.00;99723.72;5052781;28;19975;-82
2022/02/20 09:33:50;;;;;;;;;;;9.20;99.90;;;7.73;100.00;99717.47;5054833;28;19972;-84
2022/02/20 09:36:20;;;;;;;;;;;9.20;99.90;;;7.75;100.00;99718.13;5072422;28;19967;-85
2022/02/20 09:38:47;;;;;;;;;;;9.20;99.90;;;7.79;100.00;99715.88;5062812;28;20003;-81
2022/02/20 09:41:14;;;;;;;;;;;9.30;99.90;;;7.82;100.00;99729.03;5052731;28;20028;-81
2022/02/20 09:43:43;;;;;;;;;;;9.30;99.90;;;7.79;100.00;99727.56;5040610;28;20439;-81
2022/02/20 09:46:11;;;;;;;;;;;9.30;99.90;;;7.81;100.00;99717.38;5052824;28;19932;-82
2022/02/20 09:48:38;;;;;;;;;;;9.30;99.90;;;7.85;100.00;99723.25;5052247;28;19956;-82
2022/02/20 09:51:06;;;;;;;;;;;9.40;99.90;;;7.82;100.00;99713.66;5040496;28;20364;-81
2022/02/20 09:53:35;;;;;;;;;;;9.40;99.90;;;7.88;100.00;99705.78;5047707;28;20376;-82
2022/02/20 09:56:03;;;;;;;;;;;9.40;99.90;;;7.91;100.00;99700.81;5067574;28;20007;-81
2022/02/20 09:58:30;;;;;;;;;;;9.40;99.90;;;7.89;100.00;99700.19;5052490;28;19928;-81
2022/02/20 10:01:05;;;;;;;;;;;9.40;99.90;;;7.95;100.00;99693.16;5041335;28;19968;-82
2022/02/20 10:03:34;;;;;;;;;;;9.40;99.90;;;7.98;100.00;99692.81;5047757;28;19932;-81
2022/02/20 10:06:03;;;;;;;;;;;9.50;99.90;;;8.01;100.00;99695.97;5051621;28;20366;-81
2022/02/20 10:08:37;;;;;;;;;;;9.50;99.90;;;8.03;100.00;99684.94;5039212;28;19929;-83
2022/02/20 10:11:16;;;;;;;;;;;9.50;99.90;;;8.06;100.00;99679.16;5058361;28;19933;-86
2022/02/20 10:13:44;;;;;;;;;;;9.50;99.90;;;8.06;100.00;99676.44;5054636;28;19980;-81
2022/02/20 10:16:21;;;;;;;;;;;9.60;99.90;;;8.12;100.00;99677.56;5050813;28;19936;-80
2022/02/20 10:19:01;;;;;;;;;;;9.60;99.90;;;8.15;100.00;99691.56;5040296;28;20393;-81
2022/02/20 10:21:48;;;;;;;;;;;9.60;99.90;;;8.18;100.00;99684.91;5047173;28;19935;-81
2022/02/20 10:24:34;;;;;;;;;;;9.60;99.90;;;8.23;100.00;99682.47;5106303;22;20097;-83
2022/02/20 10:27:20;;;;;;;;;;;9.70;99.90;;;8.29;100.00;99689.03;5017834;28;19936;-83
2022/02/20 10:30:15;;;;;;;;;;;9.70;99.90;;;8.29;100.00;99664.63;5036637;28;20636;-83
2022/02/20 10:32:44;;;;;;;;;;;9.70;99.90;;;8.31;100.00;99676.94;5030160;28;19979;-82
2022/02/20 10:35:13;;;;;;;;;;;9.70;99.90;;;8.31;100.00;99676.94;5034330;28;19936;-83
2022/02/20 10:37:40;;;;;;;;;;;9.80;99.90;;;8.37;100.00;99669.91;5030720;28;20281;-83
2022/02/20 10:40:29;;;;;;;;;;;9.80;99.90;;;8.37;100.00;99678.88;5024693;28;19929;-83
2022/02/20 10:43:00;;;;;;;;;;;9.80;99.90;;;8.35;100.00;99677.41;5024620;28;19973;-83
2022/02/20 10:45:32;;;;;;;;;;;9.80;99.90;;;8.38;100.00;99663.47;5027961;28;19929;-83
2022/02/20 10:48:02;;;;;;;;;;;9.80;99.90;;;8.43;100.00;99677.31;5025304;28;19932;-83
2022/02/20 10:50:30;;;;;;;;;;;9.90;99.90;;;8.40;100.00;99670.38;5022545;28;20048;-83
2022/02/20 10:53:08;;;;;;;;;;;9.90;99.90;;;8.39;100.00;99670.56;5016166;28;20425;-83
2022/02/20 10:55:36;;;;;;;;;;;9.90;99.90;;;8.43;100.00;99677.31;5029591;28;19961;-83
2022/02/20 10:58:15;;;;;;;;;;;9.90;99.90;;;8.49;100.00;99670.28;5028289;28;19925;-83
2022/02/20 11:00:51;;;;;;;;;;;9.90;99.90;;;8.50;100.00;99661.97;5025764;28;20415;-83
2022/02/20 11:03:20;;;;;;;;;;;9.90;99.90;;;8.48;100.00;99674.03;5022490;28;19964;-83
2022/02/20 11:05:55;;;;;;;;;;;10.00;99.90;;;8.49;100.00;99681.13;5028325;28;19925;-83
2022/02/20 11:08:24;;;;;;;;;;;10.00;99.90;;;8.48;100.00;99674.88;5025739;28;19933;-83
2022/02/20 11:10:52;;;;;;;;;;;10.00;99.90;;;8.51;100.00;99660.94;5026831;28;19935;-83
2022/02/20 11:13:20;;;;;;;;;;;10.00;99.90;;;8.56;100.00;99666.59;5021716;28;19925;-84
2022/02/20 11:15:50;;;;;;;;;;;10.10;99.90;;;8.59;100.00;99673.53;5022448;28;19925;-83
2022/02/20 11:18:21;;;;;;;;;;;10.00;99.90;;;8.59;100.00;99677.09;5028543;28;19933;-83
2022/02/20 11:20:50;;;;;;;;;;;10.00;99.90;;;8.64;100.00;99670.25;5024805;28;19964;-83
2022/02/20 11:23:22;;;;;;;;;;;10.00;99.90;;;8.68;100.00;99675.09;5028483;28;19929;-83
2022/02/20 11:25:51;;;;;;;;;;;10.10;99.90;;;8.72;100.00;99668.25;5020925;28;19925;-83
2022/02/20 11:28:18;;;;;;;;;;;10.10;99.90;;;8.69;100.00;99660.50;5029311;28;20020;-84
2022/02/20 11:30:48;;;;;;;;;;;10.10;99.90;;;8.72;100.00;99656.53;5025428;28;19964;-83
2022/02/20 11:33:15;;;;;;;;;;;10.10;99.90;;;8.70;100.00;99640.47;5027858;28;19995;-83
2022/02/20 11:35:46;;;;;;;;;;;10.10;99.90;;;8.74;100.00;99651.78;5017315;28;20465;-83
2022/02/20 11:38:14;;;;;;;;;;;10.10;99.90;;;8.73;100.00;99642.78;5027828;28;19979;-84
2022/02/20 11:40:53;;;;;;;;;;;10.20;99.90;;;8.74;100.00;99635.50;5019703;28;19972;-83